map of BNA home
BNA - Airport
Location
City:  Nashville, Tennessee, United States
Name:Nashville International Airport
ICAO:KBNA
IATA:BNA
FAA LID:BNA

Details
Type:Airport (Part 139 Class I)
Use:Public/Civil, International (customs landing rights)
Latitude:3607'28"N (36.124472)
Longitude:8640'41"W (-86.678166)
Datum:WGS 1984
Elevation:599 ft (183 m)
Variation:3.83W (WMM2015 magnetic declination)
-0.08 annual change
Runways:4
Longest:11030 × 150 ft (3362 × 45.5 m), paved

Time
Time Zone:UTC-6 (DST-5)
Local Time:

Weather
METAR:KBNA 200953Z 00000KT 6SM BR FEW250 08/07 A3028 RMK AO2 SLP250 BCFG T00830067 $
TAF:KBNA 200526Z 2006/2106 13003KT P6SM FEW250

Related Locations
Nearby:
Farthest:MQZ: 11202 mi / 18028 km
Margaret River [Margaret River Airport], WA, AU

Find:

   beyond  
but within

Other Information
Maps:
Delays:
NOTAMs:
Links:
Sources:

  
flag of United States
flag of Tennessee
  

Airport Diagram

Airport diagram for BNA

Airport diagram PDF

Sectional Chart

Flight Planning
at skyvector.com

Satellite Image

Google Maps Satellite view

 

Copyright © 2004-2017 Karl L. Swartz. All rights reserved.
The Great Circle Mapper name and logo are trademarks of the Great Circle Mapper.
All other trademarks mentioned herein belong to their respective owners.
Please see credits for attibutions and further copyright information.

  Follow gcmap on Facebook Follow gcmap on Twitter Follow gcmap on Google+ GCmap on LinkedIn

hCard Microformat

Geo Microformat